Tropical Cyclones
[Index]
Main Index Home Page Stock Weather Photos Extreme Storms Discussion Storm News and Storm Chasing Reports Tropical Cyclones / Hurricanes / Typhoons Weather Data and Links Wild Fires / Bushfires Weather Observation Techniques Weather Picture Catalogue Tornado Pictures and Reports Stock Video Footage and DVDs for sale
Season 1948-1949 Tropical Cyclone 194903 Track Map
Season 1948-1949 Summaries: [BoM-AU] [JTWC-AU] [JTWC-SIO] [JTWC-SPAC] [JTWC-SH]
<<- Previous TC | JTWC 1948-1949 Season | Next TC ->>

click for intensity scale information  Lat/long Grid: Show Hide

 Date Labels: Show Hide

Joint Typhoon Warning Centre Cyclone Data

Name: 194903
Number: 86 / 4903

04 Dec 1948 12:00 UTC to 12 Dec 1948 00:00 UTC

    date/time    lat    long     hPa   cat  kts
1948-12-04 12   12.3   176.0                              
1948-12-04 18   12.4   176.4                              
1948-12-05 00   12.5   176.8                              
1948-12-05 06   12.6   177.1                              
1948-12-05 12   12.7   177.3                              
1948-12-05 18   12.8   177.5                              
1948-12-06 00   12.9   177.7                              
1948-12-06 06   13.4   178.5                              
1948-12-06 12   14.3   179.5                              
1948-12-06 18   15.1   180.0                              
1948-12-07 00   15.9   179.7W                             
1948-12-07 06   16.6   179.5W                             
1948-12-07 12   17.3   179.3W                             
1948-12-07 18   18.0   179.2W                             
1948-12-08 00   18.6   179.0W                             
1948-12-08 06   18.7   178.9W                             
1948-12-08 12   18.7   178.7W                             
1948-12-08 18   19.0   178.6W                             
1948-12-09 00   19.2   178.4W                             
1948-12-09 06   19.3   178.2W                             
1948-12-09 12   19.4   178.0W                             
1948-12-09 18   19.4   177.8W                             
1948-12-10 00   19.5   177.6W                             
1948-12-10 06   19.7   177.2W                             
1948-12-10 12   19.8   176.6W                             
1948-12-10 18   19.8   176.2W                             
1948-12-11 00   19.9   175.7W                             
1948-12-11 06   19.9   174.1W                             
1948-12-11 12   20.0   172.0W                             
1948-12-11 18   20.0   170.3W                             
1948-12-12 00   19.9   168.6W                             
Winds are 1-min average.

Tropical cyclone tracks developed by Michael Bath using data from the Joint Typhoon Warning Centre Best Tracks and Google Maps.


[Australian Severe Weather index] [Copyright Notice] [Email Contacts] [Search This Site] [Privacy Policy]
Document: tropical_cyclone_194903.htm Updated: 18 September 2016